createdAt,value
2019-02-17T00:01:47.066Z,92.50
2019-02-17T00:04:16.288Z,92.50
2019-02-17T00:06:45.493Z,92.60
2019-02-17T00:09:15.248Z,92.60
2019-02-17T00:11:44.428Z,92.70
2019-02-17T00:14:13.642Z,92.60
2019-02-17T00:16:42.879Z,92.30
2019-02-17T00:19:12.090Z,92.80
2019-02-17T00:21:41.255Z,92.90
2019-02-17T00:24:10.492Z,93.00
2019-02-17T00:26:39.695Z,93.00
2019-02-17T00:29:08.896Z,92.90
2019-02-17T00:31:38.089Z,92.50
2019-02-17T00:34:07.300Z,92.70
2019-02-17T00:36:36.491Z,92.70
2019-02-17T00:39:06.607Z,92.80
2019-02-17T00:41:35.808Z,92.80
2019-02-17T00:44:05.009Z,92.90
2019-02-17T00:46:34.198Z,92.80
2019-02-17T00:49:03.435Z,92.80
2019-02-17T00:51:32.627Z,92.70
2019-02-17T00:54:01.840Z,92.80
2019-02-17T00:56:31.155Z,92.80
2019-02-17T00:59:09.660Z,93.00
2019-02-17T01:01:31.219Z,93.00
2019-02-17T01:04:00.519Z,93.10
2019-02-17T01:06:29.723Z,93.20
2019-02-17T01:08:59.234Z,93.30
2019-02-17T01:11:28.423Z,93.20
2019-02-17T01:13:57.559Z,93.30
2019-02-17T01:16:26.751Z,93.50
2019-02-17T01:18:55.961Z,93.60
2019-02-17T01:21:25.171Z,93.70
2019-02-17T01:23:54.357Z,93.80
2019-02-17T01:26:23.664Z,93.90
2019-02-17T01:28:52.859Z,94.00
2019-02-17T01:31:22.134Z,94.10
2019-02-17T01:33:51.376Z,94.20
2019-02-17T01:36:20.590Z,94.40
2019-02-17T01:38:50.115Z,94.60
2019-02-17T01:41:19.304Z,94.70
2019-02-17T01:43:48.479Z,94.90
2019-02-17T01:46:17.683Z,95.00
2019-02-17T01:48:46.915Z,95.20
2019-02-17T01:51:16.140Z,95.40
2019-02-17T01:53:45.342Z,95.50
2019-02-17T01:56:14.468Z,95.60
2019-02-17T01:58:43.676Z,95.70
2019-02-17T02:01:12.864Z,95.70
2019-02-17T02:03:42.108Z,95.80
2019-02-17T02:06:11.295Z,95.80
2019-02-17T02:08:40.497Z,95.90
2019-02-17T02:11:09.708Z,96.00
2019-02-17T02:13:38.902Z,96.00
2019-02-17T02:16:08.119Z,96.00
2019-02-17T02:18:37.411Z,96.00
2019-02-17T02:21:06.608Z,96.10
2019-02-17T02:23:35.820Z,96.20
2019-02-17T02:26:05.032Z,96.20
2019-02-17T02:28:34.268Z,96.30
2019-02-17T02:31:03.449Z,96.30
2019-02-17T02:33:32.635Z,96.50
2019-02-17T02:36:01.801Z,96.70
2019-02-17T02:38:31.070Z,96.80
2019-02-17T02:41:00.265Z,96.90
2019-02-17T02:43:29.462Z,97.00
2019-02-17T02:45:58.644Z,97.10
2019-02-17T02:48:27.884Z,97.20
2019-02-17T02:50:57.078Z,97.30
2019-02-17T02:53:26.292Z,97.20
2019-02-17T02:55:55.512Z,97.30
2019-02-17T02:58:24.785Z,97.30
2019-02-17T03:00:54.043Z,97.30
2019-02-17T03:03:23.328Z,97.30
2019-02-17T03:06:07.388Z,97.30
2019-02-17T03:08:36.593Z,97.30
2019-02-17T03:11:05.784Z,97.60
2019-02-17T03:13:34.993Z,97.10
2019-02-17T03:16:04.289Z,97.00
2019-02-17T03:18:33.508Z,97.00
2019-02-17T03:21:02.719Z,96.80
2019-02-17T03:23:31.915Z,96.80
2019-02-17T03:26:01.108Z,96.70
2019-02-17T03:28:30.625Z,96.60
2019-02-17T03:30:59.938Z,96.60
2019-02-17T03:33:29.167Z,96.60
2019-02-17T03:35:58.419Z,96.50
2019-02-17T03:38:27.654Z,96.50
2019-02-17T03:40:56.852Z,96.40
2019-02-17T03:43:26.084Z,96.40
2019-02-17T03:45:55.290Z,96.20
2019-02-17T03:48:24.509Z,96.20
2019-02-17T03:50:53.732Z,96.20
2019-02-17T03:53:22.947Z,96.20
2019-02-17T03:55:52.155Z,96.30
2019-02-17T03:58:21.359Z,96.40
2019-02-17T04:00:50.563Z,96.50
2019-02-17T04:03:19.773Z,96.60
2019-02-17T04:05:49.020Z,96.50
2019-02-17T04:08:18.208Z,96.40
2019-02-17T04:10:47.412Z,96.40
2019-02-17T04:13:16.651Z,96.40
2019-02-17T04:15:46.028Z,96.40
2019-02-17T04:18:15.225Z,96.50
2019-02-17T04:20:44.468Z,96.60
2019-02-17T04:23:13.673Z,96.70
2019-02-17T04:25:42.881Z,96.80
2019-02-17T04:28:12.085Z,96.90
2019-02-17T04:30:41.275Z,96.70
2019-02-17T04:33:10.488Z,96.70
2019-02-17T04:35:39.712Z,96.60
2019-02-17T04:38:08.928Z,96.70
2019-02-17T04:40:38.115Z,96.80
2019-02-17T04:43:07.332Z,96.90
2019-02-17T04:45:36.553Z,96.90
2019-02-17T04:48:05.764Z,96.80
2019-02-17T04:50:35.002Z,96.90
2019-02-17T04:53:04.218Z,97.00
2019-02-17T04:55:33.451Z,97.10
2019-02-17T04:58:02.661Z,97.20
2019-02-17T05:00:39.771Z,97.30
2019-02-17T05:03:02.757Z,97.40
2019-02-17T05:05:31.958Z,97.60
2019-02-17T05:08:01.157Z,97.70
2019-02-17T05:10:30.470Z,97.80
2019-02-17T05:12:59.764Z,97.80
2019-02-17T05:15:29.031Z,97.90
2019-02-17T05:17:58.291Z,98.00
2019-02-17T05:20:27.484Z,98.10
2019-02-17T05:22:56.680Z,98.10
2019-02-17T05:25:25.928Z,98.20
2019-02-17T05:27:55.125Z,98.30
2019-02-17T05:30:24.335Z,98.40
2019-02-17T05:32:53.561Z,98.50
2019-02-17T05:35:22.774Z,98.60
2019-02-17T05:37:51.968Z,98.60
2019-02-17T05:40:21.198Z,98.70
2019-02-17T05:42:50.416Z,98.80
2019-02-17T05:45:19.609Z,98.90
2019-02-17T05:47:48.949Z,98.90
2019-02-17T05:50:18.262Z,99.10
2019-02-17T05:52:47.537Z,99.00
2019-02-17T05:55:16.783Z,99.10
2019-02-17T05:57:46.080Z,99.10
2019-02-17T06:00:16.881Z,99.40
2019-02-17T06:02:46.156Z,99.70
2019-02-17T06:05:15.473Z,99.40
2019-02-17T06:07:44.801Z,99.40
2019-02-17T06:10:14.105Z,99.30
2019-02-17T06:12:43.355Z,99.30
2019-02-17T06:15:12.756Z,99.30
2019-02-17T06:17:42.068Z,99.40
2019-02-17T06:20:11.748Z,99.40
2019-02-17T06:22:40.961Z,99.40
2019-02-17T06:25:10.182Z,99.50
2019-02-17T06:27:39.396Z,99.50
2019-02-17T06:30:08.836Z,99.60
2019-02-17T06:32:38.160Z,99.60
2019-02-17T06:35:07.540Z,99.60
2019-02-17T06:37:36.822Z,99.60
2019-02-17T06:40:06.580Z,99.70
2019-02-17T06:42:35.801Z,99.70
2019-02-17T06:45:05.159Z,99.80
2019-02-17T06:47:35.887Z,99.80
2019-02-17T06:50:05.704Z,99.70
2019-02-17T06:52:34.901Z,99.70
2019-02-17T06:55:23.187Z,99.70
2019-02-17T06:57:52.559Z,99.70
2019-02-17T07:00:36.757Z,99.70
2019-02-17T07:03:05.980Z,99.70
2019-02-17T07:06:03.150Z,99.70
2019-02-17T07:08:32.329Z,99.70
2019-02-17T07:11:01.546Z,99.70
2019-02-17T07:13:30.869Z,99.70
2019-02-17T07:16:00.257Z,99.70
2019-02-17T07:18:29.461Z,99.60
2019-02-17T07:20:58.785Z,99.60
2019-02-17T07:23:28.032Z,99.50
2019-02-17T07:25:57.225Z,99.50
2019-02-17T07:28:26.449Z,99.40
2019-02-17T07:30:55.852Z,99.40
2019-02-17T07:33:25.033Z,99.30
2019-02-17T07:35:54.281Z,99.10
2019-02-17T07:38:23.604Z,99.00
2019-02-17T07:40:52.884Z,98.80
2019-02-17T07:43:22.152Z,98.70
2019-02-17T07:45:51.543Z,98.50
2019-02-17T07:48:20.769Z,98.30
2019-02-17T07:50:50.229Z,98.20
2019-02-17T07:53:19.447Z,97.80
2019-02-17T07:55:48.665Z,97.50
2019-02-17T07:58:17.905Z,97.10
2019-02-17T08:00:47.117Z,96.60
2019-02-17T08:03:16.459Z,96.10
2019-02-17T08:05:45.885Z,95.50
2019-02-17T08:08:15.097Z,94.80
2019-02-17T08:10:44.317Z,94.40
2019-02-17T08:13:13.504Z,94.00
2019-02-17T08:15:42.714Z,93.40
2019-02-17T08:18:11.927Z,92.40
2019-02-17T08:20:41.148Z,91.20
2019-02-17T08:23:10.337Z,89.90
2019-02-17T08:25:39.552Z,86.90
2019-02-17T08:28:08.836Z,84.00
2019-02-17T08:30:38.080Z,81.50
2019-02-17T08:33:07.295Z,79.90
2019-02-17T08:35:36.515Z,78.70
2019-02-17T08:38:05.712Z,77.10
2019-02-17T08:40:34.933Z,75.10
2019-02-17T08:43:05.204Z,73.80
2019-02-17T08:45:34.420Z,72.90
2019-02-17T08:48:03.618Z,71.70
2019-02-17T08:50:32.848Z,70.20
2019-02-17T08:53:02.131Z,69.10
2019-02-17T08:55:31.401Z,68.20
2019-02-17T08:58:01.586Z,67.00
2019-02-17T09:00:31.732Z,64.40
2019-02-17T09:03:01.108Z,62.50
2019-02-17T09:05:30.320Z,60.20
2019-02-17T09:07:59.657Z,58.90
2019-02-17T09:10:28.922Z,58.80
2019-02-17T09:12:58.149Z,58.80
2019-02-17T09:15:27.496Z,58.90
2019-02-17T09:17:56.786Z,57.40
2019-02-17T09:20:26.176Z,56.20
2019-02-17T09:22:55.448Z,56.30
2019-02-17T09:25:24.714Z,55.60
2019-02-17T09:27:53.950Z,54.90
2019-02-17T09:30:23.364Z,54.30
2019-02-17T09:32:52.599Z,53.70
2019-02-17T09:35:21.807Z,53.90
2019-02-17T09:37:51.032Z,53.80
2019-02-17T09:40:20.247Z,53.30
2019-02-17T09:42:49.429Z,52.50
2019-02-17T09:45:18.734Z,52.50
2019-02-17T09:47:48.049Z,52.10
2019-02-17T09:50:17.376Z,51.30
2019-02-17T09:52:46.613Z,51.00
2019-02-17T09:55:15.829Z,50.50
2019-02-17T09:57:45.064Z,50.50
2019-02-17T10:00:14.522Z,50.50
2019-02-17T10:02:43.721Z,50.00
2019-02-17T10:05:13.202Z,49.80
2019-02-17T10:07:42.620Z,49.00
2019-02-17T10:10:13.439Z,49.50
2019-02-17T10:12:42.641Z,49.60
2019-02-17T10:15:12.585Z,49.30
2019-02-17T10:17:41.784Z,48.70
2019-02-17T10:20:11.321Z,48.50
2019-02-17T10:22:40.543Z,48.30
2019-02-17T10:25:09.861Z,48.10
2019-02-17T10:27:39.064Z,48.40
2019-02-17T10:30:10.310Z,48.80
2019-02-17T10:32:39.512Z,48.70
2019-02-17T10:35:08.769Z,48.30
2019-02-17T10:37:37.988Z,48.60
2019-02-17T10:40:09.034Z,48.80
2019-02-17T10:42:38.279Z,48.30
2019-02-17T10:45:08.456Z,47.20
2019-02-17T10:47:37.657Z,46.80
2019-02-17T10:50:07.464Z,46.90
2019-02-17T10:52:36.862Z,47.10
2019-02-17T10:55:06.112Z,47.20
2019-02-17T10:57:35.320Z,46.90
2019-02-17T11:00:05.264Z,47.90
2019-02-17T11:02:34.507Z,47.00
2019-02-17T11:05:03.720Z,47.80
2019-02-17T11:07:32.937Z,49.60
2019-02-17T11:10:02.153Z,51.20
2019-02-17T11:12:31.366Z,52.40
2019-02-17T11:15:00.619Z,52.90
2019-02-17T11:17:29.825Z,51.40
2019-02-17T11:19:59.040Z,49.50
2019-02-17T11:22:28.301Z,47.70
2019-02-17T11:24:57.864Z,47.20
2019-02-17T11:27:27.181Z,46.20
2019-02-17T11:29:56.481Z,45.40
2019-02-17T11:32:25.704Z,45.20
2019-02-17T11:34:54.908Z,45.00
2019-02-17T11:37:24.246Z,44.70
2019-02-17T11:39:53.449Z,45.30
2019-02-17T11:42:22.756Z,44.90
2019-02-17T11:44:51.964Z,45.30
2019-02-17T11:47:21.236Z,45.60
2019-02-17T11:49:50.500Z,45.70
2019-02-17T11:52:19.712Z,45.70
2019-02-17T11:54:48.964Z,45.30
2019-02-17T11:57:18.147Z,45.40
2019-02-17T11:59:47.352Z,45.50
2019-02-17T12:02:24.681Z,45.00
2019-02-17T12:04:47.572Z,44.30
2019-02-17T12:07:16.777Z,43.80
2019-02-17T12:09:46.069Z,44.00
2019-02-17T12:12:15.307Z,43.40
2019-02-17T12:14:44.535Z,43.90
2019-02-17T12:17:13.749Z,45.40
2019-02-17T12:19:42.980Z,47.00
2019-02-17T12:22:17.927Z,47.40
2019-02-17T12:24:55.965Z,47.20
2019-02-17T12:27:36.725Z,46.20
2019-02-17T12:30:12.497Z,46.10
2019-02-17T12:32:41.721Z,46.40
2019-02-17T12:35:11.013Z,47.00
2019-02-17T12:37:40.228Z,47.60
2019-02-17T12:40:11.740Z,48.40
2019-02-17T12:42:41.042Z,48.70
2019-02-17T12:45:16.244Z,49.10
2019-02-17T12:47:44.047Z,49.50
2019-02-17T12:50:13.476Z,50.00
2019-02-17T12:52:46.997Z,50.60
2019-02-17T12:55:13.576Z,50.80
2019-02-17T12:57:42.828Z,50.50
2019-02-17T13:00:16.019Z,50.50
2019-02-17T13:02:45.317Z,50.40
2019-02-17T13:05:14.679Z,50.50
2019-02-17T13:07:43.975Z,50.20
2019-02-17T13:10:13.505Z,50.20
2019-02-17T13:12:42.730Z,50.10
2019-02-17T13:15:12.268Z,49.20
2019-02-17T13:17:41.479Z,48.40
2019-02-17T13:20:11.628Z,48.10
2019-02-17T13:22:40.883Z,48.40
2019-02-17T13:25:10.947Z,47.90
2019-02-17T13:27:40.230Z,46.80
2019-02-17T13:30:13.057Z,46.30
2019-02-17T13:32:42.279Z,46.40
2019-02-17T13:35:11.504Z,44.60
2019-02-17T13:37:40.775Z,43.80
2019-02-17T13:40:11.047Z,44.00
2019-02-17T13:42:40.257Z,44.20
2019-02-17T13:45:10.997Z,44.70
2019-02-17T13:47:40.227Z,45.60
2019-02-17T13:50:11.338Z,46.30
2019-02-17T13:52:43.538Z,46.90
2019-02-17T13:55:16.511Z,47.60
2019-02-17T13:57:45.678Z,48.80
2019-02-17T14:00:15.598Z,51.40
2019-02-17T14:02:44.784Z,53.50
2019-02-17T14:05:14.123Z,55.30
2019-02-17T14:07:43.310Z,56.70
2019-02-17T14:10:12.679Z,57.80
2019-02-17T14:12:41.882Z,58.80
2019-02-17T14:15:12.784Z,59.40
2019-02-17T14:17:42.201Z,59.80
2019-02-17T14:20:11.577Z,59.90
2019-02-17T14:22:40.811Z,60.20
2019-02-17T14:25:11.089Z,59.90
2019-02-17T14:27:40.624Z,59.70
2019-02-17T14:30:11.355Z,59.50
2019-02-17T14:32:40.641Z,59.50
2019-02-17T14:35:09.980Z,58.90
2019-02-17T14:37:39.232Z,57.70
2019-02-17T14:40:08.468Z,56.80
2019-02-17T14:42:37.691Z,55.70
2019-02-17T14:45:07.616Z,55.00
2019-02-17T14:47:36.843Z,54.60
2019-02-17T14:50:06.229Z,54.40
2019-02-17T14:52:35.464Z,54.40
2019-02-17T14:55:04.811Z,54.50
2019-02-17T14:57:34.165Z,54.20
2019-02-17T15:00:03.385Z,54.40
2019-02-17T15:02:32.601Z,54.30
2019-02-17T15:05:01.824Z,54.50
2019-02-17T15:07:31.048Z,54.90
2019-02-17T15:10:00.322Z,55.50
2019-02-17T15:12:29.436Z,56.70
2019-02-17T15:14:58.686Z,57.90
2019-02-17T15:17:27.905Z,58.80
2019-02-17T15:19:57.127Z,59.70
2019-02-17T15:22:26.536Z,60.60
2019-02-17T15:24:55.766Z,60.80
2019-02-17T15:27:25.040Z,60.90
2019-02-17T15:29:54.305Z,61.20
2019-02-17T15:32:23.496Z,61.80
2019-02-17T15:34:52.809Z,62.10
2019-02-17T15:37:22.705Z,62.40
2019-02-17T15:39:51.915Z,62.70
2019-02-17T15:42:21.157Z,62.70
2019-02-17T15:44:50.334Z,62.70
2019-02-17T15:47:19.533Z,62.10
2019-02-17T15:49:48.797Z,60.90
2019-02-17T15:52:18.072Z,60.30
2019-02-17T15:54:47.287Z,60.00
2019-02-17T15:57:16.504Z,59.70
2019-02-17T15:59:45.740Z,59.40
2019-02-17T16:02:14.945Z,59.30
2019-02-17T16:04:45.132Z,59.20
2019-02-17T16:07:14.365Z,59.30
2019-02-17T16:09:43.586Z,59.60
2019-02-17T16:12:12.835Z,60.00
2019-02-17T16:14:42.034Z,61.00
2019-02-17T16:17:11.381Z,62.00
2019-02-17T16:19:40.572Z,63.00
2019-02-17T16:22:09.784Z,63.30
2019-02-17T16:24:38.996Z,64.10
2019-02-17T16:27:09.204Z,64.90
2019-02-17T16:29:38.985Z,65.50
2019-02-17T16:32:08.648Z,66.20
2019-02-17T16:34:38.802Z,66.70
2019-02-17T16:37:08.645Z,66.90
2019-02-17T16:39:38.510Z,67.40
2019-02-17T16:42:08.357Z,67.60
2019-02-17T16:44:37.942Z,67.70
2019-02-17T16:47:07.727Z,67.70
2019-02-17T16:49:37.240Z,67.70
2019-02-17T16:52:06.816Z,67.70
2019-02-17T16:54:36.388Z,68.10
2019-02-17T16:57:06.293Z,68.30
2019-02-17T16:59:36.156Z,68.90
2019-02-17T17:02:06.044Z,69.50
2019-02-17T17:04:35.814Z,69.80
2019-02-17T17:07:05.667Z,70.30
2019-02-17T17:09:34.948Z,70.80
2019-02-17T17:12:04.373Z,71.10
2019-02-17T17:14:33.607Z,71.40
2019-02-17T17:17:02.953Z,71.70
2019-02-17T17:19:32.276Z,71.70
2019-02-17T17:22:01.629Z,72.10
2019-02-17T17:24:30.944Z,72.40
2019-02-17T17:27:00.301Z,72.60
2019-02-17T17:29:29.575Z,73.00
2019-02-17T17:31:58.791Z,73.60
2019-02-17T17:34:28.085Z,74.00
2019-02-17T17:36:57.389Z,74.60
2019-02-17T17:39:26.675Z,75.10
2019-02-17T17:41:56.166Z,75.50
2019-02-17T17:44:25.436Z,75.50
2019-02-17T17:46:54.752Z,75.30
2019-02-17T17:49:24.132Z,75.10
2019-02-17T17:51:53.345Z,75.40
2019-02-17T17:54:22.684Z,75.80
2019-02-17T17:56:52.339Z,75.80
2019-02-17T17:59:21.559Z,76.20
2019-02-17T18:01:51.168Z,76.60
2019-02-17T18:04:20.485Z,76.90
2019-02-17T18:06:49.732Z,77.00
2019-02-17T18:09:20.163Z,77.10
2019-02-17T18:11:49.377Z,77.30
2019-02-17T18:14:18.593Z,77.40
2019-02-17T18:16:47.869Z,77.50
2019-02-17T18:19:17.082Z,77.50
2019-02-17T18:21:46.316Z,77.50
2019-02-17T18:24:15.496Z,77.90
2019-02-17T18:26:44.738Z,78.30
2019-02-17T18:29:15.211Z,78.40
2019-02-17T18:31:44.529Z,78.50
2019-02-17T18:34:13.805Z,78.90
2019-02-17T18:36:43.113Z,79.10
2019-02-17T18:39:12.398Z,79.30
2019-02-17T18:41:41.720Z,79.30
2019-02-17T18:44:11.244Z,79.30
2019-02-17T18:46:40.468Z,79.40
2019-02-17T18:49:09.800Z,79.60
2019-02-17T18:51:39.096Z,79.90
2019-02-17T18:54:08.317Z,80.20
2019-02-17T18:56:37.564Z,80.60
2019-02-17T18:59:06.789Z,80.90
2019-02-17T19:01:36.037Z,81.30
2019-02-17T19:04:05.420Z,81.50
2019-02-17T19:06:34.697Z,81.40
2019-02-17T19:09:05.022Z,81.60
2019-02-17T19:11:34.275Z,81.70
2019-02-17T19:14:03.664Z,81.80
2019-02-17T19:16:33.015Z,81.90
2019-02-17T19:19:02.348Z,82.00
2019-02-17T19:21:31.730Z,82.30
2019-02-17T19:24:00.964Z,82.40
2019-02-17T19:26:30.373Z,82.60
2019-02-17T19:28:59.734Z,82.80
2019-02-17T19:31:28.977Z,83.20
2019-02-17T19:33:58.241Z,83.60
2019-02-17T19:36:27.440Z,83.90
2019-02-17T19:38:56.688Z,84.40
2019-02-17T19:41:25.983Z,84.70
2019-02-17T19:43:55.294Z,85.80
2019-02-17T19:46:24.585Z,85.30
2019-02-17T19:48:53.960Z,85.50
2019-02-17T19:51:23.231Z,86.00
2019-02-17T19:53:52.607Z,86.40
2019-02-17T19:56:21.773Z,86.80
2019-02-17T19:58:50.993Z,87.10
2019-02-17T20:01:20.201Z,87.60
2019-02-17T20:04:08.461Z,87.90
2019-02-17T20:06:37.739Z,88.70
2019-02-17T20:09:12.436Z,89.40
2019-02-17T20:11:41.674Z,90.00
2019-02-17T20:14:10.932Z,90.30
2019-02-17T20:16:40.149Z,90.60
2019-02-17T20:19:09.387Z,90.80
2019-02-17T20:21:38.671Z,91.00
2019-02-17T20:24:08.224Z,91.20
2019-02-17T20:26:37.598Z,91.30
2019-02-17T20:29:06.823Z,91.50
2019-02-17T20:31:36.108Z,91.80
2019-02-17T20:34:05.551Z,92.00
2019-02-17T20:36:34.797Z,92.20
2019-02-17T20:39:05.278Z,92.30
2019-02-17T20:41:34.496Z,92.40
2019-02-17T20:44:03.842Z,92.50
2019-02-17T20:46:33.220Z,92.50
2019-02-17T20:49:02.540Z,92.60
2019-02-17T20:51:31.846Z,92.70
2019-02-17T20:54:01.140Z,92.80
2019-02-17T20:56:30.384Z,92.90
2019-02-17T20:58:59.667Z,93.20
2019-02-17T21:01:28.917Z,93.10
2019-02-17T21:03:58.108Z,93.20
2019-02-17T21:06:27.341Z,93.30
2019-02-17T21:08:56.550Z,93.50
2019-02-17T21:11:25.805Z,93.50
2019-02-17T21:13:55.034Z,93.50
2019-02-17T21:16:24.266Z,93.60
2019-02-17T21:18:54.018Z,93.60
2019-02-17T21:21:23.230Z,93.80
2019-02-17T21:23:53.830Z,93.80
2019-02-17T21:26:26.331Z,94.00
2019-02-17T21:28:53.885Z,94.20
2019-02-17T21:31:23.133Z,94.40
2019-02-17T21:33:52.332Z,94.50
2019-02-17T21:36:23.488Z,94.60
2019-02-17T21:38:52.440Z,94.80
2019-02-17T21:41:22.140Z,94.80
2019-02-17T21:43:51.723Z,95.00
2019-02-17T21:46:20.968Z,95.10
2019-02-17T21:48:50.205Z,95.10
2019-02-17T21:51:19.448Z,95.40
2019-02-17T21:53:48.692Z,95.60
2019-02-17T21:56:18.017Z,95.80
2019-02-17T21:58:49.454Z,95.90
2019-02-17T22:01:18.177Z,95.90
2019-02-17T22:03:47.423Z,95.90
2019-02-17T22:06:16.638Z,96.00
2019-02-17T22:08:45.820Z,96.00
2019-02-17T22:11:15.043Z,96.00
2019-02-17T22:13:44.300Z,96.20
2019-02-17T22:16:13.548Z,96.20
2019-02-17T22:18:42.864Z,96.30
2019-02-17T22:21:12.176Z,96.40
2019-02-17T22:23:41.413Z,96.50
2019-02-17T22:26:10.660Z,96.60
2019-02-17T22:28:39.925Z,96.80
2019-02-17T22:31:09.245Z,96.80
2019-02-17T22:33:38.448Z,96.80
2019-02-17T22:36:07.671Z,96.80
2019-02-17T22:38:36.905Z,96.90
2019-02-17T22:41:06.185Z,97.00
2019-02-17T22:43:35.393Z,97.10
2019-02-17T22:46:04.625Z,97.10
2019-02-17T22:48:33.847Z,97.20
2019-02-17T22:51:03.061Z,97.20
2019-02-17T22:53:32.307Z,97.20
2019-02-17T22:56:01.520Z,97.30
2019-02-17T22:58:30.756Z,97.40
2019-02-17T23:01:02.028Z,97.40
2019-02-17T23:03:31.968Z,97.50
2019-02-17T23:06:01.179Z,97.40
2019-02-17T23:08:30.489Z,97.40
2019-02-17T23:10:59.820Z,97.40
2019-02-17T23:13:29.063Z,97.40
2019-02-17T23:15:58.262Z,97.20
2019-02-17T23:18:27.581Z,96.90
2019-02-17T23:20:56.804Z,96.70
2019-02-17T23:23:26.077Z,96.60
2019-02-17T23:25:55.373Z,96.40
2019-02-17T23:28:24.575Z,96.30
2019-02-17T23:30:53.809Z,96.20
2019-02-17T23:33:23.132Z,96.00
2019-02-17T23:35:52.340Z,95.90
2019-02-17T23:38:21.556Z,95.90
2019-02-17T23:40:50.775Z,95.80
2019-02-17T23:43:20.066Z,95.70
2019-02-17T23:45:49.281Z,95.60
2019-02-17T23:48:18.593Z,95.50
2019-02-17T23:50:47.905Z,95.40
2019-02-17T23:53:17.452Z,95.30
2019-02-17T23:55:46.651Z,95.30
2019-02-17T23:58:15.840Z,95.30
